createdAt,value
2023-05-06T00:01:29.275Z,5.00
2023-05-06T00:03:56.588Z,4.82
2023-05-06T00:06:23.787Z,5.43
2023-05-06T00:08:50.994Z,5.20
2023-05-06T00:11:18.014Z,6.22
2023-05-06T00:13:45.159Z,5.15
2023-05-06T00:16:12.298Z,6.60
2023-05-06T00:18:39.599Z,5.70
2023-05-06T00:21:06.673Z,5.75
2023-05-06T00:23:33.725Z,6.70
2023-05-06T00:26:00.875Z,5.78
2023-05-06T00:28:27.995Z,5.90
2023-05-06T00:30:55.107Z,6.40
2023-05-06T00:33:24.379Z,6.63
2023-05-06T00:35:52.676Z,7.22
2023-05-06T00:38:19.725Z,7.28
2023-05-06T00:40:46.807Z,6.55
2023-05-06T00:43:13.922Z,7.88
2023-05-06T00:45:41.027Z,6.80
2023-05-06T00:48:08.424Z,6.90
2023-05-06T00:50:36.042Z,7.28
2023-05-06T00:53:04.277Z,5.93
2023-05-06T00:55:31.879Z,6.25
2023-05-06T00:57:58.957Z,5.82
2023-05-06T01:00:26.306Z,5.90
2023-05-06T01:02:53.646Z,5.07
2023-05-06T01:05:22.381Z,6.13
2023-05-06T01:07:49.550Z,6.82
2023-05-06T01:10:24.616Z,5.75
2023-05-06T01:13:07.791Z,6.63
2023-05-06T01:15:37.731Z,6.53
2023-05-06T01:18:08.842Z,6.55
2023-05-06T01:20:38.253Z,6.73
2023-05-06T01:23:10.762Z,6.60
2023-05-06T01:25:37.896Z,6.88
2023-05-06T01:28:07.479Z,6.50
2023-05-06T01:30:36.650Z,6.30
2023-05-06T01:33:30.203Z,5.30
2023-05-06T01:36:15.838Z,5.25
2023-05-06T01:38:50.208Z,6.03
2023-05-06T01:41:17.890Z,5.97
2023-05-06T01:43:45.863Z,6.20
2023-05-06T01:46:15.817Z,5.07
2023-05-06T01:48:43.670Z,5.38
2023-05-06T01:51:10.714Z,5.28
2023-05-06T01:53:37.845Z,5.13
2023-05-06T01:56:05.239Z,5.95
2023-05-06T01:58:32.405Z,5.55
2023-05-06T02:00:59.463Z,5.50
2023-05-06T02:03:26.908Z,5.35
2023-05-06T02:05:54.045Z,5.32
2023-05-06T02:08:21.426Z,5.43
2023-05-06T02:10:48.610Z,5.47
2023-05-06T02:13:15.975Z,5.93
2023-05-06T02:15:43.251Z,5.80
2023-05-06T02:18:11.281Z,6.25
2023-05-06T02:20:38.361Z,7.20
2023-05-06T02:23:05.357Z,5.78
2023-05-06T02:25:32.377Z,7.05
2023-05-06T02:27:59.475Z,7.97
2023-05-06T02:30:26.617Z,7.78
2023-05-06T02:32:53.719Z,7.80
2023-05-06T02:35:20.933Z,8.00
2023-05-06T02:37:47.990Z,7.20
2023-05-06T02:40:15.046Z,7.38
2023-05-06T02:42:42.131Z,7.57
2023-05-06T02:45:09.610Z,7.15
2023-05-06T02:47:37.182Z,7.63
2023-05-06T02:50:04.309Z,7.53
2023-05-06T02:52:32.490Z,8.60
2023-05-06T02:54:59.598Z,8.15
2023-05-06T02:57:27.101Z,8.40
2023-05-06T02:59:57.147Z,8.30
2023-05-06T03:02:24.251Z,10.10
2023-05-06T03:04:51.751Z,9.80
2023-05-06T03:07:18.808Z,9.80
2023-05-06T03:09:46.261Z,8.15
2023-05-06T03:12:13.708Z,7.53
2023-05-06T03:14:40.743Z,7.38
2023-05-06T03:17:07.969Z,7.15
2023-05-06T03:19:35.022Z,8.15
2023-05-06T03:22:02.057Z,7.45
2023-05-06T03:24:29.161Z,8.27
2023-05-06T03:26:58.533Z,6.88
2023-05-06T03:29:26.186Z,6.65
2023-05-06T03:31:53.395Z,7.20
2023-05-06T03:34:20.904Z,7.40
2023-05-06T03:36:47.950Z,8.68
2023-05-06T03:39:15.265Z,8.55
2023-05-06T03:41:42.356Z,8.63
2023-05-06T03:44:09.440Z,7.90
2023-05-06T03:46:36.708Z,7.95
2023-05-06T03:49:03.765Z,7.85
2023-05-06T03:51:30.790Z,8.43
2023-05-06T03:53:57.827Z,10.73
2023-05-06T03:56:24.882Z,9.15
2023-05-06T03:58:53.784Z,9.23
2023-05-06T04:01:21.774Z,10.98
2023-05-06T04:03:48.938Z,9.00
2023-05-06T04:06:15.976Z,9.43
2023-05-06T04:08:43.103Z,9.93
2023-05-06T04:11:10.266Z,9.65
2023-05-06T04:13:37.544Z,10.18
2023-05-06T04:16:05.618Z,9.27
2023-05-06T04:18:34.220Z,10.68
2023-05-06T04:21:01.334Z,9.18
2023-05-06T04:23:28.454Z,10.35
2023-05-06T04:25:55.545Z,9.35
2023-05-06T04:28:22.616Z,9.15
2023-05-06T04:30:49.762Z,10.02
2023-05-06T04:33:17.005Z,10.23
2023-05-06T04:35:50.641Z,9.63
2023-05-06T04:38:18.365Z,10.43
2023-05-06T04:40:45.503Z,9.45
2023-05-06T04:43:12.889Z,12.02
2023-05-06T04:45:42.913Z,9.20
2023-05-06T04:48:10.058Z,11.35
2023-05-06T04:50:37.117Z,11.20
2023-05-06T04:53:04.132Z,13.18
2023-05-06T04:55:33.319Z,13.00
2023-05-06T04:58:00.402Z,10.68
2023-05-06T05:00:27.835Z,11.55
2023-05-06T05:02:54.992Z,10.43
2023-05-06T05:05:22.423Z,11.65
2023-05-06T05:07:49.468Z,11.10
2023-05-06T05:10:16.575Z,11.32
2023-05-06T05:12:43.668Z,11.05
2023-05-06T05:15:11.705Z,10.02
2023-05-06T05:17:39.056Z,9.77
2023-05-06T05:20:06.484Z,10.13
2023-05-06T05:22:33.513Z,10.40
2023-05-06T05:25:00.630Z,10.00
2023-05-06T05:27:27.925Z,9.57
2023-05-06T05:29:54.992Z,10.57
2023-05-06T05:32:22.135Z,10.20
2023-05-06T05:34:49.329Z,10.57
2023-05-06T05:37:16.562Z,9.60
2023-05-06T05:39:43.670Z,9.23
2023-05-06T05:42:10.837Z,10.18
2023-05-06T05:44:37.993Z,8.88
2023-05-06T05:47:06.535Z,9.05
2023-05-06T05:49:33.660Z,8.98
2023-05-06T05:52:00.701Z,9.15
2023-05-06T05:54:27.796Z,10.48
2023-05-06T05:56:54.938Z,10.10
2023-05-06T05:59:21.972Z,10.23
2023-05-06T06:01:48.983Z,9.50
2023-05-06T06:04:16.110Z,9.70
2023-05-06T06:06:43.544Z,8.15
2023-05-06T06:09:11.171Z,8.30
2023-05-06T06:11:38.286Z,8.60
2023-05-06T06:14:05.471Z,11.05
2023-05-06T06:16:32.761Z,10.02
2023-05-06T06:18:59.999Z,8.82
2023-05-06T06:21:27.615Z,7.32
2023-05-06T06:23:54.690Z,5.75
2023-05-06T06:26:21.980Z,3.85
2023-05-06T06:28:49.336Z,3.65
2023-05-06T06:31:16.574Z,3.55
2023-05-06T06:33:44.247Z,3.47
2023-05-06T06:36:11.489Z,3.10
2023-05-06T06:38:38.665Z,3.25
2023-05-06T06:41:06.040Z,3.55
2023-05-06T06:43:34.440Z,3.33
2023-05-06T06:46:01.833Z,3.40
2023-05-06T06:48:29.456Z,3.58
2023-05-06T06:50:56.656Z,4.15
2023-05-06T06:53:23.760Z,3.65
2023-05-06T06:55:51.161Z,3.45
2023-05-06T06:58:18.174Z,3.78
2023-05-06T07:00:45.298Z,3.38
2023-05-06T07:03:15.812Z,4.05
2023-05-06T07:05:43.060Z,3.95
2023-05-06T07:08:10.879Z,3.90
2023-05-06T07:10:38.917Z,3.47
2023-05-06T07:13:06.188Z,3.17
2023-05-06T07:15:33.284Z,4.25
2023-05-06T07:18:00.462Z,3.70
2023-05-06T07:20:27.780Z,3.00
2023-05-06T07:22:54.933Z,3.05
2023-05-06T07:25:22.131Z,3.97
2023-05-06T07:27:49.274Z,3.83
2023-05-06T07:30:16.556Z,3.45
2023-05-06T07:32:43.700Z,3.40
2023-05-06T07:35:10.857Z,3.20
2023-05-06T07:37:38.082Z,3.00
2023-05-06T07:40:05.543Z,3.30
2023-05-06T07:42:32.666Z,3.25
2023-05-06T07:44:59.804Z,3.75
2023-05-06T07:47:28.135Z,3.35
2023-05-06T07:49:55.881Z,3.22
2023-05-06T07:52:23.372Z,3.55
2023-05-06T07:54:50.519Z,3.30
2023-05-06T07:57:17.885Z,3.38
2023-05-06T07:59:47.893Z,4.05
2023-05-06T08:02:15.282Z,4.20
2023-05-06T08:04:42.972Z,4.10
2023-05-06T08:07:11.117Z,4.60
2023-05-06T08:09:38.365Z,4.07
2023-05-06T08:12:05.731Z,3.85
2023-05-06T08:14:32.797Z,4.55
2023-05-06T08:16:59.905Z,4.25
2023-05-06T08:19:28.158Z,4.05
2023-05-06T08:21:55.370Z,4.72
2023-05-06T08:24:22.473Z,4.50
2023-05-06T08:26:50.944Z,4.50
2023-05-06T08:29:18.064Z,3.97
2023-05-06T08:31:45.259Z,4.45
2023-05-06T08:34:12.425Z,4.20
2023-05-06T08:36:39.485Z,5.13
2023-05-06T08:39:06.622Z,5.55
2023-05-06T08:41:35.449Z,4.80
2023-05-06T08:44:02.847Z,4.97
2023-05-06T08:46:31.113Z,4.78
2023-05-06T08:48:58.835Z,5.07
2023-05-06T08:51:28.609Z,4.85
2023-05-06T08:53:56.320Z,4.85
2023-05-06T08:56:24.924Z,5.15
2023-05-06T08:58:52.326Z,5.32
2023-05-06T09:01:19.493Z,4.97
2023-05-06T09:03:47.987Z,4.30
2023-05-06T09:06:15.165Z,4.70
2023-05-06T09:08:42.319Z,5.00
2023-05-06T09:11:21.978Z,5.25
2023-05-06T09:13:49.019Z,4.90
2023-05-06T09:16:31.409Z,5.20
2023-05-06T09:18:59.436Z,5.13
2023-05-06T09:21:39.512Z,5.20
2023-05-06T09:24:07.494Z,5.28
2023-05-06T09:26:35.881Z,4.97
2023-05-06T09:29:03.259Z,5.10
2023-05-06T09:31:31.036Z,4.80
2023-05-06T09:33:59.437Z,4.95
2023-05-06T09:36:27.654Z,5.25
2023-05-06T09:38:57.715Z,4.72
2023-05-06T09:41:25.818Z,4.90
2023-05-06T09:43:54.019Z,4.78
2023-05-06T09:46:25.005Z,4.47
2023-05-06T09:48:53.768Z,4.93
2023-05-06T09:51:21.229Z,5.65
2023-05-06T09:53:48.774Z,5.53
2023-05-06T09:56:16.587Z,4.97
2023-05-06T09:58:43.985Z,5.35
2023-05-06T10:01:17.135Z,5.57
2023-05-06T10:03:51.892Z,6.03
2023-05-06T10:06:20.276Z,6.28
2023-05-06T10:08:48.126Z,5.65
2023-05-06T10:11:16.138Z,5.38
2023-05-06T10:13:43.664Z,5.78
2023-05-06T10:16:12.796Z,5.75
2023-05-06T10:18:42.097Z,6.28
2023-05-06T10:21:15.863Z,5.68
2023-05-06T10:23:52.283Z,5.63
2023-05-06T10:26:20.798Z,5.07
2023-05-06T10:28:49.835Z,4.85
2023-05-06T10:31:17.074Z,5.65
2023-05-06T10:33:46.069Z,5.68
2023-05-06T10:36:23.548Z,5.72
2023-05-06T10:38:54.813Z,5.00
2023-05-06T10:41:22.331Z,5.50
2023-05-06T10:43:56.502Z,5.57
2023-05-06T10:46:27.867Z,5.07
2023-05-06T10:51:22.101Z,5.18
2023-05-06T10:54:07.082Z,4.85
2023-05-06T10:56:36.097Z,4.50
2023-05-06T10:59:08.095Z,4.82
2023-05-06T11:01:36.608Z,4.93
2023-05-06T11:04:11.287Z,4.57
2023-05-06T11:06:41.186Z,5.05
2023-05-06T11:09:19.416Z,4.32
2023-05-06T11:12:00.436Z,5.38
2023-05-06T11:14:37.771Z,4.13
2023-05-06T11:17:27.940Z,4.20
2023-05-06T11:20:21.252Z,3.80
2023-05-06T11:22:48.407Z,4.70
2023-05-06T11:25:16.746Z,3.83
2023-05-06T11:27:43.778Z,4.40
2023-05-06T11:30:15.004Z,4.32
2023-05-06T11:32:43.867Z,3.60
2023-05-06T11:35:12.217Z,3.40
2023-05-06T11:37:39.380Z,3.65
2023-05-06T11:40:14.540Z,2.58
2023-05-06T11:42:41.793Z,3.00
2023-05-06T11:45:09.324Z,3.67
2023-05-06T11:47:36.537Z,3.60
2023-05-06T11:50:09.861Z,3.40
2023-05-06T11:52:37.294Z,4.40
2023-05-06T11:55:09.820Z,4.47
2023-05-06T11:57:36.902Z,3.90
2023-05-06T12:00:05.088Z,3.70
2023-05-06T12:02:32.352Z,3.28
2023-05-06T12:04:59.576Z,4.38
2023-05-06T12:07:26.634Z,3.80
2023-05-06T12:09:53.841Z,4.30
2023-05-06T12:12:22.909Z,5.00
2023-05-06T12:14:53.830Z,2.88
2023-05-06T12:17:21.335Z,2.67
2023-05-06T12:19:48.475Z,3.28
2023-05-06T12:22:18.660Z,3.65
2023-05-06T12:24:46.259Z,3.80
2023-05-06T12:27:13.421Z,4.10
2023-05-06T12:29:40.535Z,3.35
2023-05-06T12:32:09.279Z,3.28
2023-05-06T12:34:38.192Z,3.40
2023-05-06T12:37:05.640Z,3.03
2023-05-06T12:39:39.502Z,4.18
2023-05-06T12:42:06.898Z,4.15
2023-05-06T12:44:38.066Z,4.13
2023-05-06T12:47:07.395Z,3.20
2023-05-06T12:49:53.149Z,3.28
2023-05-06T12:52:21.521Z,3.22
2023-05-06T12:54:48.959Z,3.08
2023-05-06T12:57:16.252Z,3.92
2023-05-06T12:59:44.258Z,3.47
2023-05-06T13:02:11.505Z,3.92
2023-05-06T13:04:38.799Z,3.72
2023-05-06T13:07:06.207Z,3.47
2023-05-06T13:09:33.306Z,3.63
2023-05-06T13:12:00.457Z,4.28
2023-05-06T13:14:27.520Z,3.72
2023-05-06T13:16:54.860Z,4.18
2023-05-06T13:19:32.376Z,3.88
2023-05-06T13:22:00.520Z,3.35
2023-05-06T13:24:27.809Z,2.88
2023-05-06T13:26:56.370Z,3.25
2023-05-06T13:29:23.755Z,3.90
2023-05-06T13:31:51.689Z,3.90
2023-05-06T13:34:19.090Z,3.45
2023-05-06T13:36:47.813Z,4.00
2023-05-06T13:39:16.014Z,3.90
2023-05-06T13:41:43.373Z,3.70
2023-05-06T13:44:10.531Z,3.47
2023-05-06T13:46:37.709Z,3.50
2023-05-06T13:49:04.807Z,2.95
2023-05-06T13:51:33.510Z,3.53
2023-05-06T13:54:00.982Z,3.08
2023-05-06T13:56:28.066Z,3.33
2023-05-06T13:58:55.903Z,3.00
2023-05-06T14:01:23.355Z,3.45
2023-05-06T14:03:50.737Z,3.65
2023-05-06T14:06:18.033Z,3.95
2023-05-06T14:08:45.291Z,3.88
2023-05-06T14:11:12.447Z,4.13
2023-05-06T14:13:40.321Z,4.05
2023-05-06T14:16:07.712Z,3.90
2023-05-06T14:18:34.994Z,4.50
2023-05-06T14:21:02.229Z,3.72
2023-05-06T14:23:29.333Z,5.13
2023-05-06T14:25:56.392Z,4.20
2023-05-06T14:28:23.721Z,4.68
2023-05-06T14:30:51.468Z,4.45
2023-05-06T14:33:18.722Z,4.68
2023-05-06T14:35:51.211Z,4.50
2023-05-06T14:38:18.949Z,4.43
2023-05-06T14:40:46.204Z,4.38
2023-05-06T14:43:13.331Z,3.97
2023-05-06T14:45:40.563Z,4.38
2023-05-06T14:48:07.774Z,4.20
2023-05-06T14:50:35.157Z,4.38
2023-05-06T14:53:03.765Z,4.75
2023-05-06T14:55:31.262Z,4.30
2023-05-06T14:57:58.390Z,3.90
2023-05-06T15:00:25.686Z,3.70
2023-05-06T15:02:52.817Z,4.05
2023-05-06T15:05:20.002Z,4.07
2023-05-06T15:07:47.049Z,4.15
2023-05-06T15:10:14.230Z,4.20
2023-05-06T15:12:41.437Z,4.15
2023-05-06T15:15:09.034Z,3.95
2023-05-06T15:17:36.380Z,3.40
2023-05-06T15:20:04.487Z,4.10
2023-05-06T15:22:31.614Z,3.60
2023-05-06T15:24:58.782Z,3.67
2023-05-06T15:27:25.827Z,4.03
2023-05-06T15:29:52.889Z,3.33
2023-05-06T15:32:20.039Z,3.28
2023-05-06T15:34:47.416Z,4.43
2023-05-06T15:37:19.138Z,3.70
2023-05-06T15:39:47.793Z,4.22
2023-05-06T15:42:15.022Z,4.20
2023-05-06T15:44:42.310Z,3.72
2023-05-06T15:47:09.655Z,4.05
2023-05-06T15:49:51.418Z,3.35
2023-05-06T15:52:21.144Z,4.10
2023-05-06T15:54:50.003Z,3.83
2023-05-06T15:57:17.491Z,3.50
2023-05-06T15:59:44.572Z,4.47
2023-05-06T16:02:26.806Z,4.15
2023-05-06T16:04:54.928Z,4.28
2023-05-06T16:07:22.217Z,4.38
2023-05-06T16:09:50.162Z,4.35
2023-05-06T16:12:17.366Z,4.80
2023-05-06T16:14:44.749Z,5.03
2023-05-06T16:17:11.849Z,5.30
2023-05-06T16:19:40.581Z,6.28
2023-05-06T16:22:07.614Z,6.57
2023-05-06T16:24:34.724Z,6.50
2023-05-06T16:27:02.384Z,6.38
2023-05-06T16:29:29.379Z,6.43
2023-05-06T16:31:56.624Z,6.50
2023-05-06T16:34:25.420Z,5.85
2023-05-06T16:36:52.523Z,6.13
2023-05-06T16:39:19.644Z,6.60
2023-05-06T16:41:47.195Z,6.80
2023-05-06T16:44:14.243Z,5.88
2023-05-06T16:46:41.354Z,6.20
2023-05-06T16:49:08.417Z,5.80
2023-05-06T16:51:35.593Z,6.00
2023-05-06T16:54:03.123Z,5.85
2023-05-06T16:56:43.810Z,7.43
2023-05-06T16:59:15.582Z,5.90
2023-05-06T17:01:42.634Z,6.63
2023-05-06T17:04:10.186Z,6.15
2023-05-06T17:06:37.399Z,5.57
2023-05-06T17:09:04.548Z,5.82
2023-05-06T17:11:31.718Z,6.13
2023-05-06T17:13:58.870Z,5.63
2023-05-06T17:16:26.019Z,5.65
2023-05-06T17:18:53.103Z,6.47
2023-05-06T17:21:21.345Z,6.28
2023-05-06T17:23:48.517Z,6.38
2023-05-06T17:26:17.690Z,6.32
2023-05-06T17:28:45.191Z,6.38
2023-05-06T17:31:12.436Z,5.97
2023-05-06T17:33:39.555Z,6.20
2023-05-06T17:36:07.020Z,6.07
2023-05-06T17:38:34.069Z,6.10
2023-05-06T17:41:01.249Z,6.32
2023-05-06T17:43:28.665Z,6.10
2023-05-06T17:45:55.938Z,5.47
2023-05-06T17:48:23.228Z,5.03
2023-05-06T17:50:50.305Z,5.65
2023-05-06T17:53:17.345Z,5.00
2023-05-06T17:55:44.393Z,5.97
2023-05-06T17:58:11.774Z,4.78
2023-05-06T18:00:39.089Z,5.00
2023-05-06T18:03:06.324Z,5.05
2023-05-06T18:05:33.552Z,5.28
2023-05-06T18:08:00.763Z,5.07
2023-05-06T18:10:27.977Z,4.70
2023-05-06T18:12:56.916Z,5.40
2023-05-06T18:15:24.292Z,4.70
2023-05-06T18:17:51.533Z,4.57
2023-05-06T18:20:18.771Z,4.20
2023-05-06T18:22:46.482Z,4.28
2023-05-06T18:25:13.784Z,4.10
2023-05-06T18:27:40.975Z,4.22
2023-05-06T18:30:08.906Z,4.30
2023-05-06T18:32:36.094Z,5.35
2023-05-06T18:35:03.321Z,4.43
2023-05-06T18:37:30.476Z,4.10
2023-05-06T18:39:57.564Z,4.50
2023-05-06T18:42:24.637Z,4.70
2023-05-06T18:44:51.802Z,5.03
2023-05-06T18:47:22.135Z,4.72
2023-05-06T18:49:49.275Z,4.18
2023-05-06T18:52:17.652Z,4.22
2023-05-06T18:54:44.795Z,4.15
2023-05-06T18:57:12.416Z,4.55
2023-05-06T18:59:41.788Z,4.78
2023-05-06T19:02:09.028Z,4.10
2023-05-06T19:04:36.271Z,4.85
2023-05-06T19:07:06.246Z,4.80
2023-05-06T19:09:37.311Z,4.40
2023-05-06T19:12:04.832Z,3.90
2023-05-06T19:14:35.119Z,4.65
2023-05-06T19:17:03.554Z,4.30
2023-05-06T19:19:31.296Z,4.47
2023-05-06T19:21:59.732Z,4.32
2023-05-06T19:24:26.882Z,4.22
2023-05-06T19:26:53.908Z,4.35
2023-05-06T19:29:21.141Z,5.47
2023-05-06T19:31:48.163Z,4.75
2023-05-06T19:34:15.721Z,4.20
2023-05-06T19:36:42.857Z,4.43
2023-05-06T19:39:09.923Z,4.35
2023-05-06T19:41:37.092Z,6.28
2023-05-06T19:44:04.182Z,6.03
2023-05-06T19:46:31.300Z,4.68
2023-05-06T19:48:58.350Z,4.60
2023-05-06T19:51:25.556Z,4.85
2023-05-06T19:53:52.615Z,4.85
2023-05-06T19:56:20.238Z,5.45
2023-05-06T19:58:47.368Z,6.18
2023-05-06T20:01:14.870Z,5.28
2023-05-06T20:03:42.172Z,5.53
2023-05-06T20:06:09.381Z,6.07
2023-05-06T20:08:36.440Z,6.13
2023-05-06T20:11:03.486Z,5.75
2023-05-06T20:13:30.692Z,5.30
2023-05-06T20:15:57.821Z,6.03
2023-05-06T20:18:25.460Z,5.60
2023-05-06T20:20:52.534Z,6.93
2023-05-06T20:23:19.599Z,6.13
2023-05-06T20:25:46.698Z,6.93
2023-05-06T20:28:13.736Z,6.22
2023-05-06T20:30:40.825Z,7.38
2023-05-06T20:33:08.083Z,7.22
2023-05-06T20:35:38.329Z,7.82
2023-05-06T20:38:06.514Z,8.07
2023-05-06T20:40:35.485Z,8.13
2023-05-06T20:43:04.262Z,8.98
2023-05-06T20:45:31.669Z,8.52
2023-05-06T20:47:59.091Z,8.40
2023-05-06T20:50:28.705Z,9.00
2023-05-06T20:52:56.042Z,9.23
2023-05-06T20:55:23.689Z,8.80
2023-05-06T20:57:51.059Z,9.02
2023-05-06T21:00:19.122Z,8.30
2023-05-06T21:02:46.488Z,8.55
2023-05-06T21:05:14.108Z,8.77
2023-05-06T21:07:41.413Z,9.13
2023-05-06T21:10:09.829Z,8.00
2023-05-06T21:12:38.428Z,8.23
2023-05-06T21:15:06.231Z,7.90
2023-05-06T21:17:33.396Z,8.40
2023-05-06T21:20:01.392Z,8.40
2023-05-06T21:22:28.898Z,9.18
2023-05-06T21:24:56.084Z,7.68
2023-05-06T21:27:25.101Z,7.68
2023-05-06T21:29:52.492Z,7.25
2023-05-06T21:32:19.725Z,7.63
2023-05-06T21:34:47.050Z,7.88
2023-05-06T21:37:14.250Z,8.27
2023-05-06T21:39:41.391Z,8.15
2023-05-06T21:42:08.602Z,7.32
2023-05-06T21:44:35.972Z,8.07
2023-05-06T21:47:04.407Z,8.13
2023-05-06T21:49:31.434Z,7.93
2023-05-06T21:51:58.659Z,8.15
2023-05-06T21:54:26.324Z,8.35
2023-05-06T21:56:53.332Z,7.78
2023-05-06T21:59:20.412Z,8.82
2023-05-06T22:01:48.060Z,9.35
2023-05-06T22:04:19.967Z,8.70
2023-05-06T22:09:14.003Z,9.20
2023-05-06T22:11:41.293Z,9.25
2023-05-06T22:14:09.425Z,9.27
2023-05-06T22:16:37.884Z,10.00
2023-05-06T22:19:05.395Z,9.60
2023-05-06T22:21:33.823Z,9.25
2023-05-06T22:24:01.087Z,8.77
2023-05-06T22:26:28.268Z,9.07
2023-05-06T22:28:58.303Z,9.30
2023-05-06T22:31:25.561Z,9.75
2023-05-06T22:33:55.474Z,10.02
2023-05-06T22:36:23.018Z,9.40
2023-05-06T22:38:50.127Z,9.57
2023-05-06T22:41:20.323Z,10.55
2023-05-06T22:43:47.468Z,10.07
2023-05-06T22:46:14.672Z,10.48
2023-05-06T22:48:44.589Z,11.18
2023-05-06T22:51:12.250Z,10.65
2023-05-06T22:53:39.254Z,10.80
2023-05-06T22:56:06.494Z,10.77
2023-05-06T22:58:33.525Z,10.70
2023-05-06T23:01:01.787Z,10.13
2023-05-06T23:03:29.110Z,11.02
2023-05-06T23:05:56.381Z,10.93
2023-05-06T23:08:23.552Z,11.60
2023-05-06T23:10:50.589Z,11.68
2023-05-06T23:13:17.890Z,12.10
2023-05-06T23:15:44.924Z,12.63
2023-05-06T23:18:12.022Z,10.18
2023-05-06T23:20:39.330Z,12.05
2023-05-06T23:23:10.517Z,12.32
2023-05-06T23:25:37.581Z,11.70
2023-05-06T23:28:04.754Z,11.95
2023-05-06T23:30:31.886Z,12.57
2023-05-06T23:32:59.089Z,12.52
2023-05-06T23:35:26.285Z,12.07
2023-05-06T23:37:53.366Z,12.07
2023-05-06T23:40:20.664Z,12.57
2023-05-06T23:42:47.731Z,12.60
2023-05-06T23:45:14.754Z,13.27
2023-05-06T23:47:42.209Z,12.30
2023-05-06T23:50:09.702Z,12.88
2023-05-06T23:52:38.126Z,12.27
2023-05-06T23:55:05.852Z,11.68
2023-05-06T23:57:32.976Z,13.27
2023-05-06T23:59:59.992Z,13.07
